Time;durP1;ratioP1;P1;durP2;ratioP2;P2;SDS_P1;SDS_P2;PMS_P1;PMS_P2;Temp;Humidity;BMP_temperature;BMP_pressure;BME280_temperature;BME280_humidity;BME280_pressure;Samples;Min_cycle;Max_cycle;Signal;HPM_P1;HPM_P2
2022/09/22 00:01:30;;;;;;;;;;;19.00;65.10;;;;;;4514442;31;20052;-62
2022/09/22 00:03:56;;;;;;;;;;;19.00;65.10;;;;;;4514329;31;20036;-62
2022/09/22 00:06:24;;;;;;;;;;;18.90;65.00;;;;;;4514901;31;20448;-62
2022/09/22 00:08:54;;;;;;;;;;;19.00;65.10;;;;;;4513928;31;20067;-62
2022/09/22 00:11:21;;;;;;;;;;;18.90;65.00;;;;;;4515099;31;20028;-62
2022/09/22 00:13:51;;;;;;;;;;;18.90;65.00;;;;;;4514147;31;20040;-62
2022/09/22 00:16:19;;;;;;;;;;;18.90;64.90;;;;;;4500792;31;20032;-63
2022/09/22 00:18:44;;;;;;;;;;;18.90;65.00;;;;;;4513816;31;20044;-63
2022/09/22 00:21:11;;;;;;;;;;;18.90;64.90;;;;;;4513459;31;20044;-63
2022/09/22 00:23:38;;;;;;;;;;;18.90;64.90;;;;;;4514642;31;20040;-63
2022/09/22 00:26:05;;;;;;;;;;;18.90;64.90;;;;;;4512143;31;20043;-63
2022/09/22 00:28:31;;;;;;;;;;;18.90;64.90;;;;;;4505973;31;20646;-63
2022/09/22 00:30:57;;;;;;;;;;;18.90;64.90;;;;;;4510145;31;20692;-62
2022/09/22 00:33:23;;;;;;;;;;;18.90;64.90;;;;;;4514008;31;20194;-63
2022/09/22 00:35:58;;;;;;;;;;;18.90;64.90;;;;;;4513917;31;20009;-63
2022/09/22 00:38:24;;;;;;;;;;;18.90;64.80;;;;;;4513695;31;20045;-62
2022/09/22 00:40:50;;;;;;;;;;;18.90;64.80;;;;;;4514460;31;20031;-62
2022/09/22 00:43:17;;;;;;;;;;;18.90;64.80;;;;;;4525287;31;20009;-62
2022/09/22 00:45:45;;;;;;;;;;;18.90;64.80;;;;;;4514442;31;20094;-63
2022/09/22 00:48:11;;;;;;;;;;;18.90;64.90;;;;;;4513433;31;20041;-63
2022/09/22 00:50:37;;;;;;;;;;;18.80;64.70;;;;;;4510034;31;20098;-64
2022/09/22 00:53:07;;;;;;;;;;;18.80;64.70;;;;;;4509779;31;20021;-62
2022/09/22 00:55:38;;;;;;;;;;;18.80;64.70;;;;;;4513047;31;20029;-62
2022/09/22 00:58:08;;;;;;;;;;;18.80;64.70;;;;;;4514201;31;20043;-62
2022/09/22 01:00:34;;;;;;;;;;;18.80;64.70;;;;;;4513302;31;20035;-62
2022/09/22 01:03:02;;;;;;;;;;;18.80;65.50;;;;;;4502262;31;20101;-62
2022/09/22 01:05:29;;;;;;;;;;;18.80;64.70;;;;;;4512934;31;20032;-64
2022/09/22 01:07:54;;;;;;;;;;;18.80;64.70;;;;;;4513502;31;20472;-63
2022/09/22 01:10:21;;;;;;;;;;;18.80;64.70;;;;;;4525556;31;20036;-63
2022/09/22 01:12:52;;;;;;;;;;;18.80;64.70;;;;;;4509178;31;20076;-62
2022/09/22 01:15:25;;;;;;;;;;;18.80;64.70;;;;;;4508106;31;20028;-63
2022/09/22 01:17:51;;;;;;;;;;;18.80;64.70;;;;;;4512830;31;20039;-63
2022/09/22 01:20:23;;;;;;;;;;;18.80;64.70;;;;;;4513498;31;20025;-62
2022/09/22 01:23:05;;;;;;;;;;;18.80;64.70;;;;;;4513285;31;20035;-64
2022/09/22 01:25:49;;;;;;;;;;;18.80;64.70;;;;;;4512912;31;20048;-62
2022/09/22 01:28:15;;;;;;;;;;;18.70;64.60;;;;;;4498200;31;20033;-62
2022/09/22 01:30:47;;;;;;;;;;;18.80;64.70;;;;;;4495905;31;20036;-62
2022/09/22 01:33:13;;;;;;;;;;;18.80;64.70;;;;;;4513266;31;20520;-62
2022/09/22 01:35:51;;;;;;;;;;;18.70;64.50;;;;;;4513254;31;20032;-63
2022/09/22 01:38:24;;;;;;;;;;;18.70;64.60;;;;;;4512798;31;20039;-62
2022/09/22 01:40:53;;;;;;;;;;;18.70;64.50;;;;;;4512191;31;20470;-63
2022/09/22 01:43:29;;;;;;;;;;;18.70;64.50;;;;;;4512291;31;20397;-62
2022/09/22 01:45:55;;;;;;;;;;;18.70;64.50;;;;;;4513512;31;20040;-63
2022/09/22 01:48:26;;;;;;;;;;;18.70;64.50;;;;;;4512593;31;20102;-62
2022/09/22 01:51:04;;;;;;;;;;;18.70;64.50;;;;;;4512992;31;20029;-62
2022/09/22 01:53:33;;;;;;;;;;;18.70;64.60;;;;;;4513280;31;20040;-63
2022/09/22 01:56:03;;;;;;;;;;;18.70;64.60;;;;;;4512257;31;20673;-62
2022/09/22 01:58:34;;;;;;;;;;;18.70;64.60;;;;;;4513272;31;20076;-62
2022/09/22 02:01:08;;;;;;;;;;;18.70;64.50;;;;;;4512713;31;20037;-63
2022/09/22 02:03:43;;;;;;;;;;;18.70;64.50;;;;;;4512663;31;20071;-63
2022/09/22 02:06:15;;;;;;;;;;;18.70;64.60;;;;;;4513288;31;20444;-63
2022/09/22 02:08:49;;;;;;;;;;;18.70;64.60;;;;;;4512365;31;20467;-63
2022/09/22 02:11:15;;;;;;;;;;;18.70;64.50;;;;;;4512460;31;20040;-62
2022/09/22 02:13:42;;;;;;;;;;;18.70;64.50;;;;;;4511503;31;20025;-62
2022/09/22 02:16:08;;;;;;;;;;;18.70;64.50;;;;;;4502503;31;20167;-62
2022/09/22 02:18:38;;;;;;;;;;;18.70;64.50;;;;;;4511756;31;20028;-63
2022/09/22 02:21:04;;;;;;;;;;;18.60;64.40;;;;;;4512633;31;20039;-63
2022/09/22 02:23:31;;;;;;;;;;;18.70;64.50;;;;;;4525275;31;20029;-62
2022/09/22 02:25:57;;;;;;;;;;;18.60;64.40;;;;;;4511858;31;20029;-63
2022/09/22 02:28:24;;;;;;;;;;;18.60;64.40;;;;;;4513291;31;20562;-63
2022/09/22 02:30:51;;;;;;;;;;;18.60;64.40;;;;;;4512202;31;20082;-63
2022/09/22 02:33:21;;;;;;;;;;;18.60;64.40;;;;;;4512662;31;20032;-63
2022/09/22 02:35:51;;;;;;;;;;;18.60;64.40;;;;;;4512658;31;20037;-62
2022/09/22 02:38:23;;;;;;;;;;;18.60;64.40;;;;;;4512518;31;20159;-63
2022/09/22 02:40:53;;;;;;;;;;;18.60;64.30;;;;;;4513163;31;20113;-62
2022/09/22 02:43:25;;;;;;;;;;;18.60;64.30;;;;;;4512127;31;20043;-62
2022/09/22 02:46:04;;;;;;;;;;;18.60;64.40;;;;;;4512964;31;20093;-62
2022/09/22 02:48:34;;;;;;;;;;;18.60;64.30;;;;;;4496581;31;20037;-63
2022/09/22 02:51:00;;;;;;;;;;;18.60;64.30;;;;;;4507717;31;20048;-63
2022/09/22 02:53:26;;;;;;;;;;;18.60;64.30;;;;;;4515699;31;20064;-62
2022/09/22 02:55:51;;;;;;;;;;;18.60;64.30;;;;;;4514738;31;20173;-62
2022/09/22 02:58:17;;;;;;;;;;;18.60;64.30;;;;;;4516133;31;20024;-62
2022/09/22 03:00:44;;;;;;;;;;;18.60;64.30;;;;;;4515159;31;20066;-62
2022/09/22 03:03:10;;;;;;;;;;;18.60;64.30;;;;;;4515574;31;20032;-63
2022/09/22 03:05:39;;;;;;;;;;;18.50;64.20;;;;;;4515402;31;20105;-62
2022/09/22 03:08:05;;;;;;;;;;;18.50;64.20;;;;;;4515087;31;20150;-62
2022/09/22 03:10:30;;;;;;;;;;;18.50;64.20;;;;;;4515557;31;20079;-62
2022/09/22 03:12:56;;;;;;;;;;;18.50;64.10;;;;;;4514962;31;20024;-62
2022/09/22 03:15:23;;;;;;;;;;;18.50;64.20;;;;;;4515784;31;20129;-62
2022/09/22 03:17:48;;;;;;;;;;;18.50;64.10;;;;;;4514755;31;20059;-62
2022/09/22 03:20:14;;;;;;;;;;;18.50;64.10;;;;;;4515398;31;20568;-63
2022/09/22 03:22:40;;;;;;;;;;;18.50;64.10;;;;;;4515155;31;20024;-62
2022/09/22 03:25:07;;;;;;;;;;;18.50;64.20;;;;;;4514645;31;20028;-62
2022/09/22 03:27:33;;;;;;;;;;;18.50;64.10;;;;;;4515216;31;20159;-62
2022/09/22 03:29:59;;;;;;;;;;;18.50;64.10;;;;;;4514804;31;20047;-62
2022/09/22 03:32:25;;;;;;;;;;;18.50;64.10;;;;;;4515470;31;20013;-62
2022/09/22 03:34:51;;;;;;;;;;;18.50;64.10;;;;;;4526697;31;20005;-62
2022/09/22 03:37:18;;;;;;;;;;;18.50;64.10;;;;;;4527204;31;20028;-63
2022/09/22 03:39:44;;;;;;;;;;;18.50;64.10;;;;;;4514796;31;20448;-62
2022/09/22 03:42:10;;;;;;;;;;;18.50;64.10;;;;;;4513653;31;20032;-62
2022/09/22 03:44:36;;;;;;;;;;;18.50;64.10;;;;;;4514830;31;20043;-63
2022/09/22 03:47:01;;;;;;;;;;;18.50;64.10;;;;;;4526422;31;20498;-63
2022/09/22 03:49:27;;;;;;;;;;;18.40;64.10;;;;;;4515339;31;20013;-63
2022/09/22 03:51:53;;;;;;;;;;;18.40;64.10;;;;;;4513952;31;20032;-62
2022/09/22 03:54:20;;;;;;;;;;;18.50;64.10;;;;;;4514965;31;20098;-63
2022/09/22 03:56:46;;;;;;;;;;;18.40;64.00;;;;;;4513256;31;20044;-62
2022/09/22 03:59:12;;;;;;;;;;;18.40;64.00;;;;;;4514574;31;20101;-62
2022/09/22 04:01:38;;;;;;;;;;;18.50;64.00;;;;;;4513686;31;20041;-62
2022/09/22 04:04:04;;;;;;;;;;;18.40;64.00;;;;;;4513590;31;20021;-63
2022/09/22 04:06:30;;;;;;;;;;;18.40;64.00;;;;;;4510653;31;20036;-62
2022/09/22 04:08:56;;;;;;;;;;;18.40;64.00;;;;;;4504999;31;20099;-62
2022/09/22 04:11:23;;;;;;;;;;;18.40;64.00;;;;;;4514724;31;20108;-62
2022/09/22 04:13:49;;;;;;;;;;;18.40;64.00;;;;;;4514405;31;20198;-62
2022/09/22 04:16:15;;;;;;;;;;;18.40;63.90;;;;;;4514145;31;20025;-62
2022/09/22 04:18:41;;;;;;;;;;;18.40;64.00;;;;;;4526694;31;20086;-62
2022/09/22 04:21:07;;;;;;;;;;;18.40;64.00;;;;;;4514141;31;20028;-62
2022/09/22 04:23:33;;;;;;;;;;;18.40;63.90;;;;;;4514534;31;20465;-62
2022/09/22 04:26:00;;;;;;;;;;;18.40;63.90;;;;;;4513512;31;20036;-62
2022/09/22 04:28:26;;;;;;;;;;;18.40;64.00;;;;;;4514886;31;20595;-63
2022/09/22 04:30:52;;;;;;;;;;;18.40;63.90;;;;;;4513739;31;20037;-63
2022/09/22 04:33:18;;;;;;;;;;;18.40;64.00;;;;;;4513074;31;20025;-62
2022/09/22 04:35:43;;;;;;;;;;;18.40;63.90;;;;;;4525974;31;20072;-62
2022/09/22 04:38:09;;;;;;;;;;;18.30;63.90;;;;;;4512754;31;20013;-63
2022/09/22 04:40:36;;;;;;;;;;;18.30;63.90;;;;;;4514392;31;20032;-62
2022/09/22 04:43:02;;;;;;;;;;;18.30;63.90;;;;;;4513517;31;20040;-62
2022/09/22 04:45:28;;;;;;;;;;;18.30;63.90;;;;;;4514510;31;20028;-63
2022/09/22 04:47:53;;;;;;;;;;;18.30;63.90;;;;;;4513391;31;20085;-62
2022/09/22 04:50:21;;;;;;;;;;;18.30;63.90;;;;;;4512977;31;20025;-62
2022/09/22 04:52:48;;;;;;;;;;;18.30;63.80;;;;;;4513230;31;20170;-62
2022/09/22 04:55:15;;;;;;;;;;;18.30;63.90;;;;;;4513266;31;20083;-62
2022/09/22 04:57:51;;;;;;;;;;;18.30;63.90;;;;;;4513984;31;20143;-62
2022/09/22 05:00:17;;;;;;;;;;;18.30;63.90;;;;;;4513235;31;20198;-62
2022/09/22 05:02:43;;;;;;;;;;;18.30;63.90;;;;;;4511049;31;20083;-62
2022/09/22 05:05:09;;;;;;;;;;;18.30;63.80;;;;;;4513441;31;20047;-62
2022/09/22 05:07:35;;;;;;;;;;;18.30;63.90;;;;;;4513600;31;20025;-62
2022/09/22 05:10:01;;;;;;;;;;;18.30;63.80;;;;;;4513426;31;20032;-62
2022/09/22 05:12:27;;;;;;;;;;;18.30;63.90;;;;;;4512383;31;20021;-62
2022/09/22 05:14:53;;;;;;;;;;;18.30;63.80;;;;;;4513126;31;20086;-62
2022/09/22 05:17:19;;;;;;;;;;;18.20;63.70;;;;;;4512761;31;20052;-62
2022/09/22 05:19:45;;;;;;;;;;;18.30;63.80;;;;;;4513750;31;20475;-62
2022/09/22 05:22:11;;;;;;;;;;;18.20;63.70;;;;;;4513162;31;20030;-62
2022/09/22 05:24:37;;;;;;;;;;;18.30;63.80;;;;;;4513490;31;20386;-62
2022/09/22 05:27:04;;;;;;;;;;;18.20;63.70;;;;;;4512958;31;20504;-62
2022/09/22 05:29:29;;;;;;;;;;;18.20;63.70;;;;;;4513247;31;20029;-62
2022/09/22 05:31:56;;;;;;;;;;;18.20;63.70;;;;;;4513629;31;20059;-63
2022/09/22 05:34:21;;;;;;;;;;;18.20;63.70;;;;;;4511430;31;20017;-62
2022/09/22 05:36:47;;;;;;;;;;;18.20;63.70;;;;;;4513872;31;20342;-62
2022/09/22 05:39:13;;;;;;;;;;;18.20;63.70;;;;;;4512525;31;20163;-62
2022/09/22 05:41:39;;;;;;;;;;;18.20;63.70;;;;;;4513389;31;20399;-62
2022/09/22 05:44:04;;;;;;;;;;;18.20;63.60;;;;;;4512991;31;20059;-62
2022/09/22 05:46:30;;;;;;;;;;;18.20;63.70;;;;;;4512972;31;20035;-63
2022/09/22 05:48:56;;;;;;;;;;;18.20;63.60;;;;;;4513216;31;20476;-62
2022/09/22 05:51:21;;;;;;;;;;;18.20;63.70;;;;;;4511381;31;20028;-62
2022/09/22 05:53:47;;;;;;;;;;;18.20;63.60;;;;;;4513532;31;20121;-63
2022/09/22 05:56:16;;;;;;;;;;;18.20;63.60;;;;;;4524294;31;20016;-62
2022/09/22 05:58:42;;;;;;;;;;;18.10;63.60;;;;;;4513162;31;20042;-62
2022/09/22 06:01:07;;;;;;;;;;;18.10;63.60;;;;;;4512691;31;20025;-62
2022/09/22 06:03:33;;;;;;;;;;;18.10;63.60;;;;;;4511655;31;20039;-62
2022/09/22 06:05:59;;;;;;;;;;;18.10;63.60;;;;;;4525338;31;20028;-62
2022/09/22 06:08:27;;;;;;;;;;;18.10;63.50;;;;;;4506638;31;20021;-62
2022/09/22 06:10:53;;;;;;;;;;;18.10;63.60;;;;;;4507252;31;20079;-62
2022/09/22 06:13:18;;;;;;;;;;;18.20;63.70;;;;;;4512505;31;20585;-62
2022/09/22 06:15:47;;;;;;;;;;;18.10;63.60;;;;;;4513136;31;20492;-62
2022/09/22 06:18:19;;;;;;;;;;;18.10;63.70;;;;;;4512641;31;20076;-62
2022/09/22 06:20:45;;;;;;;;;;;18.10;63.80;;;;;;4524647;31;20028;-63
2022/09/22 06:23:14;;;;;;;;;;;18.10;63.80;;;;;;4511920;31;20582;-62
2022/09/22 06:25:41;;;;;;;;;;;18.10;63.80;;;;;;4511981;31;20458;-62
2022/09/22 06:28:09;;;;;;;;;;;18.10;63.90;;;;;;4516242;31;20033;-62
2022/09/22 06:30:38;;;;;;;;;;;18.10;63.90;;;;;;4515494;31;20040;-62
2022/09/22 06:33:09;;;;;;;;;;;18.10;63.90;;;;;;4516095;31;20076;-62
2022/09/22 06:35:37;;;;;;;;;;;18.10;63.90;;;;;;4515599;31;20021;-62
2022/09/22 06:38:05;;;;;;;;;;;18.10;64.00;;;;;;4515779;31;20042;-63
2022/09/22 06:40:32;;;;;;;;;;;18.10;64.80;;;;;;4516084;31;20038;-62
2022/09/22 06:43:06;;;;;;;;;;;18.10;64.00;;;;;;4515200;31;20048;-62
2022/09/22 06:45:32;;;;;;;;;;;18.10;63.90;;;;;;4516615;31;20040;-62
2022/09/22 06:47:59;;;;;;;;;;;18.10;63.90;;;;;;4515376;31;20191;-61
2022/09/22 06:50:28;;;;;;;;;;;18.10;63.40;;;;;;4515806;31;20039;-61
2022/09/22 06:52:58;;;;;;;;;;;18.10;62.70;;;;;;4515446;31;20040;-62
2022/09/22 06:55:24;;;;;;;;;;;18.10;62.20;;;;;;4515204;31;20037;-61
2022/09/22 06:57:50;;;;;;;;;;;18.10;62.20;;;;;;4515723;31;20109;-62
2022/09/22 07:00:16;;;;;;;;;;;18.10;62.40;;;;;;4514630;31;20037;-64
2022/09/22 07:02:42;;;;;;;;;;;18.10;62.50;;;;;;4515882;31;20056;-62
2022/09/22 07:05:08;;;;;;;;;;;18.10;62.60;;;;;;4514935;31;20017;-62
2022/09/22 07:07:34;;;;;;;;;;;18.10;62.70;;;;;;4527654;31;20028;-62
2022/09/22 07:09:59;;;;;;;;;;;18.10;62.90;;;;;;4527329;31;20049;-63
2022/09/22 07:12:25;;;;;;;;;;;18.20;63.20;;;;;;4515068;31;20017;-63
2022/09/22 07:14:52;;;;;;;;;;;18.20;63.30;;;;;;4515713;31;20053;-62
2022/09/22 07:17:19;;;;;;;;;;;18.20;63.30;;;;;;4503493;31;20013;-62
2022/09/22 07:19:49;;;;;;;;;;;18.20;63.30;;;;;;4514230;31;20035;-64
2022/09/22 07:22:17;;;;;;;;;;;18.20;63.50;;;;;;4514434;31;20486;-62
2022/09/22 07:24:43;;;;;;;;;;;18.20;63.60;;;;;;4513039;31;20037;-63
2022/09/22 07:27:13;;;;;;;;;;;18.30;63.70;;;;;;4514383;31;20024;-64
2022/09/22 07:29:41;;;;;;;;;;;18.30;63.70;;;;;;4514251;31;20034;-63
2022/09/22 07:32:08;;;;;;;;;;;18.30;63.80;;;;;;4515193;31;20602;-63
2022/09/22 07:34:35;;;;;;;;;;;18.30;63.80;;;;;;4513057;31;20087;-63
2022/09/22 07:37:01;;;;;;;;;;;18.30;63.80;;;;;;4515417;31;20138;-62
2022/09/22 07:39:27;;;;;;;;;;;18.30;63.80;;;;;;4512639;31;20154;-62
2022/09/22 07:41:53;;;;;;;;;;;18.30;63.90;;;;;;4514614;31;20097;-63
2022/09/22 07:47:03;;;;;;;;;;;18.40;63.90;;;;;;4514391;31;20059;-63
2022/09/22 07:49:29;;;;;;;;;;;18.40;63.70;;;;;;4515131;31;20044;-63
2022/09/22 07:51:56;;;;;;;;;;;18.40;63.40;;;;;;4514006;31;20049;-61
2022/09/22 07:54:22;;;;;;;;;;;18.40;63.50;;;;;;4514681;31;20055;-63
2022/09/22 07:56:50;;;;;;;;;;;18.50;63.30;;;;;;4514141;31;20037;-63
2022/09/22 07:59:16;;;;;;;;;;;18.50;63.30;;;;;;4514440;31;20024;-62
2022/09/22 08:01:46;;;;;;;;;;;18.50;63.40;;;;;;4508504;31;20160;-61
2022/09/22 08:04:17;;;;;;;;;;;18.50;63.40;;;;;;4506142;31;20086;-63
2022/09/22 08:06:44;;;;;;;;;;;18.50;63.50;;;;;;4515026;31;20068;-62
2022/09/22 08:09:10;;;;;;;;;;;18.50;63.50;;;;;;4513942;31;20020;-61
2022/09/22 08:11:37;;;;;;;;;;;18.50;63.50;;;;;;4514326;31;20029;-61
2022/09/22 08:14:04;;;;;;;;;;;18.50;63.60;;;;;;4513543;31;20139;-64
2022/09/22 08:16:32;;;;;;;;;;;18.60;63.70;;;;;;4513495;31;20071;-64
2022/09/22 08:18:59;;;;;;;;;;;18.60;63.70;;;;;;4514009;31;20090;-62
2022/09/22 08:21:25;;;;;;;;;;;18.70;63.60;;;;;;4513498;31;20040;-64
2022/09/22 08:23:51;;;;;;;;;;;18.70;63.60;;;;;;4514091;31;20032;-65
2022/09/22 08:26:18;;;;;;;;;;;18.70;63.50;;;;;;4513485;31;20401;-61
2022/09/22 08:28:44;;;;;;;;;;;18.70;63.50;;;;;;4512627;31;20608;-62
2022/09/22 08:31:10;;;;;;;;;;;18.70;63.50;;;;;;4513508;31;20036;-62
2022/09/22 08:33:37;;;;;;;;;;;18.70;63.40;;;;;;4511993;31;20029;-63
2022/09/22 08:36:03;;;;;;;;;;;18.80;63.50;;;;;;4511214;31;20040;-64
2022/09/22 08:38:31;;;;;;;;;;;18.80;63.50;;;;;;4512081;31;20061;-64
2022/09/22 08:40:58;;;;;;;;;;;18.80;63.30;;;;;;4512791;31;20161;-64
2022/09/22 08:43:24;;;;;;;;;;;18.90;63.30;;;;;;4511589;31;20043;-64
2022/09/22 08:45:51;;;;;;;;;;;18.90;63.30;;;;;;4512465;31;20545;-63
2022/09/22 08:53:52;;;;;;;;;;;19.00;63.70;;;;;;4513598;31;20008;-64
2022/09/22 08:56:30;;;;;;;;;;;19.00;63.10;;;;;;4512631;31;20035;-62
2022/09/22 08:59:01;;;;;;;;;;;19.00;62.90;;;;;;4511950;31;20426;-63
2022/09/22 09:01:45;;;;;;;;;;;19.10;63.00;;;;;;4512581;31;20029;-62
2022/09/22 09:04:23;;;;;;;;;;;19.10;62.90;;;;;;4510445;31;20094;-65
2022/09/22 09:07:00;;;;;;;;;;;19.10;62.80;;;;;;4512862;31;20085;-64
2022/09/22 09:09:33;;;;;;;;;;;19.10;62.70;;;;;;4511964;31;20028;-64
2022/09/22 09:12:05;;;;;;;;;;;19.20;62.80;;;;;;4512090;31;20033;-64
2022/09/22 09:14:37;;;;;;;;;;;19.20;62.90;;;;;;4510946;31;20520;-64
2022/09/22 09:17:06;;;;;;;;;;;19.20;62.90;;;;;;4512129;31;20063;-63
2022/09/22 09:19:39;;;;;;;;;;;19.20;62.80;;;;;;4513560;31;20054;-63
2022/09/22 09:22:11;;;;;;;;;;;19.30;62.50;;;;;;4511215;31;20166;-63
2022/09/22 09:24:44;;;;;;;;;;;19.30;62.60;;;;;;4512736;31;20040;-62
2022/09/22 09:27:13;;;;;;;;;;;19.30;62.60;;;;;;4512072;31;20029;-61
2022/09/22 09:29:43;;;;;;;;;;;19.30;62.50;;;;;;4512969;31;20085;-61
2022/09/22 09:32:15;;;;;;;;;;;19.30;62.50;;;;;;4513865;31;20516;-64
2022/09/22 09:34:41;;;;;;;;;;;19.30;62.20;;;;;;4509556;31;20029;-65
2022/09/22 09:37:12;;;;;;;;;;;19.30;62.00;;;;;;4512736;31;20037;-62
2022/09/22 09:39:40;;;;;;;;;;;19.30;61.90;;;;;;4509949;31;20040;-63
2022/09/22 09:42:16;;;;;;;;;;;19.40;61.90;;;;;;4511750;31;20500;-64
2022/09/22 09:44:43;;;;;;;;;;;19.40;61.90;;;;;;4512080;31;20048;-63
2022/09/22 09:47:20;;;;;;;;;;;19.40;61.60;;;;;;4512058;31;20028;-63
2022/09/22 09:49:46;;;;;;;;;;;19.40;61.30;;;;;;4511338;31;20092;-63
2022/09/22 09:52:12;;;;;;;;;;;19.40;61.10;;;;;;4511432;31;20101;-63
2022/09/22 09:54:42;;;;;;;;;;;19.50;61.30;;;;;;4512393;31;20744;-63
2022/09/22 09:57:08;;;;;;;;;;;19.40;61.10;;;;;;4512562;31;20076;-64
2022/09/22 10:02:25;;;;;;;;;;;19.50;61.10;;;;;;4512654;31;20242;-63
2022/09/22 10:04:52;;;;;;;;;;;19.50;61.10;;;;;;4512102;31;20105;-64
2022/09/22 10:07:20;;;;;;;;;;;19.50;60.90;;;;;;4512425;31;20041;-63
2022/09/22 10:09:49;;;;;;;;;;;19.50;60.70;;;;;;4512009;31;20040;-63
2022/09/22 10:12:28;;;;;;;;;;;19.50;60.70;;;;;;4512553;31;20040;-62
2022/09/22 10:14:58;;;;;;;;;;;19.50;60.80;;;;;;4510991;31;20152;-68
2022/09/22 10:17:50;;;;;;;;;;;19.50;60.90;;;;;;4511678;31;20183;-63
2022/09/22 10:20:16;;;;;;;;;;;19.50;60.80;;;;;;4503981;31;20021;-64
2022/09/22 10:22:42;;;;;;;;;;;19.50;60.50;;;;;;4511982;31;20025;-64
2022/09/22 10:25:18;;;;;;;;;;;19.50;60.30;;;;;;4511831;31;20147;-64
2022/09/22 10:27:57;;;;;;;;;;;19.50;60.70;;;;;;4511312;31;20090;-66
2022/09/22 10:30:23;;;;;;;;;;;19.50;60.40;;;;;;4509772;31;20036;-64
2022/09/22 10:33:05;;;;;;;;;;;19.50;60.60;;;;;;4512629;31;20043;-64
2022/09/22 10:35:32;;;;;;;;;;;19.50;60.50;;;;;;4511423;31;20048;-65
2022/09/22 10:38:06;;;;;;;;;;;19.50;60.40;;;;;;4510254;31;20386;-64
2022/09/22 10:40:32;;;;;;;;;;;19.50;60.20;;;;;;4512778;31;20040;-64
2022/09/22 10:42:58;;;;;;;;;;;19.40;60.10;;;;;;4509508;31;20009;-64
2022/09/22 10:45:35;;;;;;;;;;;19.40;59.60;;;;;;4512721;31;20167;-63
2022/09/22 10:48:16;;;;;;;;;;;19.40;59.70;;;;;;4511681;31;20028;-64
2022/09/22 10:51:02;;;;;;;;;;;19.40;60.00;;;;;;4512128;31;20036;-64
2022/09/22 10:53:44;;;;;;;;;;;19.40;59.90;;;;;;4512511;31;20033;-63
2022/09/22 10:56:19;;;;;;;;;;;19.50;59.90;;;;;;4511806;31;20033;-63
2022/09/22 10:59:03;;;;;;;;;;;19.40;59.70;;;;;;4509562;31;20041;-64
2022/09/22 11:01:35;;;;;;;;;;;19.50;59.90;;;;;;4511459;31;20146;-66
2022/09/22 11:04:01;;;;;;;;;;;19.40;59.70;;;;;;4511016;31;20033;-64
2022/09/22 11:12:18;;;;;;;;;;;19.50;59.30;;;;;;4512441;31;20064;-64
2022/09/22 11:14:49;;;;;;;;;;;19.50;59.20;;;;;;4515530;31;20044;-64
2022/09/22 11:17:37;;;;;;;;;;;19.40;58.80;;;;;;4514545;31;20092;-64
2022/09/22 11:20:02;;;;;;;;;;;19.50;58.80;;;;;;4515412;31;20042;-64
2022/09/22 11:22:41;;;;;;;;;;;19.50;58.80;;;;;;4514947;31;20020;-64
2022/09/22 11:25:23;;;;;;;;;;;19.50;58.60;;;;;;4514837;31;20049;-64
2022/09/22 11:28:16;;;;;;;;;;;19.40;58.50;;;;;;4499853;31;20025;-64
2022/09/22 11:30:44;;;;;;;;;;;19.40;58.60;;;;;;4512618;31;20188;-64
2022/09/22 11:33:30;;;;;;;;;;;19.40;58.90;;;;;;4515037;31;20012;-64
2022/09/22 11:36:00;;;;;;;;;;;19.50;58.80;;;;;;4515216;31;20032;-65
2022/09/22 11:38:39;;;;;;;;;;;19.40;58.90;;;;;;4514480;31;20047;-64
2022/09/22 11:41:25;;;;;;;;;;;19.40;59.40;;;;;;4515158;31;20055;-65
2022/09/22 11:43:54;;;;;;;;;;;19.40;59.60;;;;;;4514725;31;20043;-65
2022/09/22 11:46:22;;;;;;;;;;;19.40;59.90;;;;;;4498735;31;20557;-65
2022/09/22 11:48:51;;;;;;;;;;;19.40;60.70;;;;;;4510186;31;20016;-64
2022/09/22 11:51:49;;;;;;;;;;;19.40;59.70;;;;;;4514052;31;20035;-65
2022/09/22 11:54:38;;;;;;;;;;;19.40;58.90;;;;;;4493514;31;20029;-64
2022/09/22 11:57:08;;;;;;;;;;;19.40;59.40;;;;;;4508701;31;20032;-64
2022/09/22 11:59:37;;;;;;;;;;;19.40;59.60;;;;;;4513472;31;20621;-65
2022/09/22 12:02:07;;;;;;;;;;;19.40;59.30;;;;;;4514639;31;20061;-65
2022/09/22 12:04:36;;;;;;;;;;;19.40;58.70;;;;;;4511991;31;20013;-65
2022/09/22 12:07:05;;;;;;;;;;;19.40;59.10;;;;;;4514189;31;20060;-66
2022/09/22 12:09:43;;;;;;;;;;;19.40;58.90;;;;;;4511880;31;20041;-65
2022/09/22 12:12:13;;;;;;;;;;;19.40;59.60;;;;;;4512504;31;20047;-65
2022/09/22 12:14:39;;;;;;;;;;;19.50;59.50;;;;;;4514057;31;20662;-65
2022/09/22 12:17:16;;;;;;;;;;;19.40;59.40;;;;;;4513140;31;20127;-65
2022/09/22 12:20:04;;;;;;;;;;;19.40;59.70;;;;;;4512306;31;20034;-66
2022/09/22 12:22:48;;;;;;;;;;;19.50;59.40;;;;;;4512647;31;20032;-65
2022/09/22 12:25:14;;;;;;;;;;;19.50;59.40;;;;;;4511711;31;20043;-65
2022/09/22 12:27:40;;;;;;;;;;;19.50;59.20;;;;;;4514060;31;20040;-65
2022/09/22 12:30:06;;;;;;;;;;;19.50;59.20;;;;;;4513201;31;20021;-65
2022/09/22 12:32:36;;;;;;;;;;;19.60;59.30;;;;;;4514115;31;20033;-65
2022/09/22 12:35:03;;;;;;;;;;;19.50;58.80;;;;;;4513409;31;20039;-64
2022/09/22 12:37:34;;;;;;;;;;;19.60;58.90;;;;;;4513691;31;20025;-63
2022/09/22 12:40:05;;;;;;;;;;;19.60;58.80;;;;;;4506250;31;20473;-64
2022/09/22 12:42:33;;;;;;;;;;;19.60;58.70;;;;;;4513345;31;20098;-64
2022/09/22 12:45:17;;;;;;;;;;;19.60;58.50;;;;;;4505968;31;20189;-64
2022/09/22 12:47:47;;;;;;;;;;;19.50;58.30;;;;;;4513462;31;20089;-64
2022/09/22 12:50:22;;;;;;;;;;;19.60;58.20;;;;;;4513909;31;20539;-64
2022/09/22 12:52:52;;;;;;;;;;;19.50;58.10;;;;;;4513542;31;20524;-64
2022/09/22 12:55:20;;;;;;;;;;;19.60;58.00;;;;;;4513268;31;20072;-64
2022/09/22 12:57:47;;;;;;;;;;;19.60;57.80;;;;;;4514094;31;20035;-64
2022/09/22 13:00:16;;;;;;;;;;;19.60;57.60;;;;;;4512446;31;20044;-64
2022/09/22 13:02:44;;;;;;;;;;;19.60;57.60;;;;;;4512395;31;20049;-63
2022/09/22 13:05:10;;;;;;;;;;;19.60;57.70;;;;;;4513047;31;20093;-63
2022/09/22 13:07:37;;;;;;;;;;;19.70;58.30;;;;;;4512657;31;20452;-64
2022/09/22 13:10:21;;;;;;;;;;;19.60;57.50;;;;;;4513142;31;20048;-63
2022/09/22 13:13:11;;;;;;;;;;;19.60;57.10;;;;;;4512235;31;20092;-64
2022/09/22 13:15:49;;;;;;;;;;;19.70;57.60;;;;;;4483030;31;20168;-63
2022/09/22 13:18:29;;;;;;;;;;;19.60;57.50;;;;;;4511069;31;20060;-64
2022/09/22 13:20:57;;;;;;;;;;;19.60;57.80;;;;;;4512619;31;20032;-63
2022/09/22 13:23:23;;;;;;;;;;;19.60;57.80;;;;;;4513372;31;20392;-63
2022/09/22 13:25:50;;;;;;;;;;;19.70;58.10;;;;;;4512059;31;20079;-64
2022/09/22 13:28:17;;;;;;;;;;;19.70;57.60;;;;;;4513066;31;20017;-63
2022/09/22 13:30:44;;;;;;;;;;;19.70;57.60;;;;;;4512793;31;20096;-63
2022/09/22 13:33:20;;;;;;;;;;;19.70;57.50;;;;;;4513145;31;20025;-63
2022/09/22 13:35:46;;;;;;;;;;;19.70;57.30;;;;;;4512791;31;20162;-63
2022/09/22 13:38:13;;;;;;;;;;;19.70;56.90;;;;;;4512742;31;20029;-62
2022/09/22 13:40:44;;;;;;;;;;;19.70;57.30;;;;;;4513616;31;20044;-63
2022/09/22 13:43:11;;;;;;;;;;;19.70;57.00;;;;;;4512721;31;20045;-63
2022/09/22 13:45:38;;;;;;;;;;;19.70;57.10;;;;;;4513342;31;20068;-63
2022/09/22 13:48:08;;;;;;;;;;;19.70;57.00;;;;;;4512945;31;20024;-63
2022/09/22 13:50:47;;;;;;;;;;;19.80;57.10;;;;;;4512949;31;20035;-63
2022/09/22 13:53:15;;;;;;;;;;;19.70;57.00;;;;;;4513210;31;20110;-63
2022/09/22 13:55:41;;;;;;;;;;;19.70;57.00;;;;;;4512370;31;20036;-63
2022/09/22 13:58:10;;;;;;;;;;;19.70;56.90;;;;;;4513216;31;20159;-63
2022/09/22 14:00:44;;;;;;;;;;;19.70;57.10;;;;;;4512615;31;20076;-63
2022/09/22 14:03:16;;;;;;;;;;;19.70;57.20;;;;;;4512631;31;20044;-63
2022/09/22 14:05:41;;;;;;;;;;;19.60;57.40;;;;;;4513141;31;20032;-63
2022/09/22 14:08:12;;;;;;;;;;;19.60;57.50;;;;;;4511733;31;20013;-63
2022/09/22 14:10:39;;;;;;;;;;;19.70;58.10;;;;;;4513132;31;20036;-62
2022/09/22 14:13:25;;;;;;;;;;;19.60;58.80;;;;;;4511953;31;20516;-63
2022/09/22 14:15:51;;;;;;;;;;;19.60;59.00;;;;;;4512782;31;20625;-63
2022/09/22 14:18:38;;;;;;;;;;;19.70;58.20;;;;;;4512601;31;20033;-63
2022/09/22 14:21:06;;;;;;;;;;;19.70;58.10;;;;;;4505917;31;20056;-65
2022/09/22 14:23:32;;;;;;;;;;;19.70;58.60;;;;;;4512216;31;20393;-62
2022/09/22 14:26:00;;;;;;;;;;;19.70;59.10;;;;;;4512102;31;20017;-62
2022/09/22 14:28:28;;;;;;;;;;;19.70;59.20;;;;;;4512850;31;20028;-64
2022/09/22 14:30:54;;;;;;;;;;;19.60;59.20;;;;;;4512592;31;20065;-63
2022/09/22 14:33:23;;;;;;;;;;;19.60;59.00;;;;;;4512576;31;20033;-61
2022/09/22 14:35:51;;;;;;;;;;;19.70;59.20;;;;;;4512720;31;20024;-62
2022/09/22 14:38:18;;;;;;;;;;;19.70;59.20;;;;;;4512286;31;20036;-63
2022/09/22 14:40:49;;;;;;;;;;;19.70;59.30;;;;;;4513146;31;20641;-62
2022/09/22 14:43:21;;;;;;;;;;;19.60;59.30;;;;;;4512282;31;20044;-63
2022/09/22 14:46:00;;;;;;;;;;;19.60;59.30;;;;;;4512541;31;20028;-63